• Join FlightAware (Why Join?)
  • Login
  • US Flag 
04:57PM EDT


 

Airport Tracker/Info


-or-


 

Live Flight TrackerFlight Track Log ✈ SLI2074 ✈ 29-Jun-2013 ✈ MMMX / MEX - MMLP / LAP

Flight Track Log - Related Links

Times and Time Zones

All times are in EDT time to prevent confusion due to time zone crossing. See the SLI2074 flight status page for this flight to view local times or setup timezone preferences in your user account.

Time Position Orientation Groundspeed Altitude Reporting Facility
EDT Latitude Longitude Course Direction KTS MPH feet Rate Location/Type
11:28PM 19.9594 -100.2273 296° West  Level Estimated
11:29PM 20.0026 -100.3239 295° West  Level Estimated
11:30PM 20.0458 -100.4206 295° West  Level Estimated
11:31PM 20.0889 -100.5173 295° West  Level Estimated
11:32PM 20.1320 -100.6141 295° West  Level Estimated
11:33PM 20.1751 -100.7109 295° West  Level Estimated
11:34PM 20.2181 -100.8078 295° West  Level Estimated
11:35PM 20.2610 -100.9047 295° West  Level Estimated
11:36PM 20.3039 -101.0017 295° West  Level Estimated
11:37PM 20.3467 -101.0987 295° West  Level Estimated
11:38PM 20.3895 -101.1958 295° West  Level Estimated
11:39PM 20.4322 -101.2929 295° West  Level Estimated
11:40PM 20.4749 -101.3901 295° West  Level Estimated
11:41PM 20.5175 -101.4874 295° West  Level Estimated
11:42PM 20.5600 -101.5847 295° West  Level Estimated
11:43PM 20.6025 -101.6821 295° West  Level Estimated
11:44PM 20.6450 -101.7795 295° West  Level Estimated
11:45PM 20.6874 -101.8769 295° West  Level Estimated
11:46PM 20.7297 -101.9745 295° West  Level Estimated
11:47PM 20.7720 -102.0720 295° West  Level Estimated
11:48PM 20.8142 -102.1697 295° West  Level Estimated
11:49PM 20.8564 -102.2674 295° West  Level Estimated
11:50PM 20.8985 -102.3651 295° West  Level Estimated
11:51PM 20.9406 -102.4629 295° West  Level Estimated
11:52PM 20.9826 -102.5608 295° West  Level Estimated
11:53PM 21.0245 -102.6587 295° West  Level Estimated
11:54PM 21.0665 -102.7566 295° West  Level Estimated
11:55PM 21.1083 -102.8546 295° West  Level Estimated
11:56PM 21.1501 -102.9527 295° West  Level Estimated
11:57PM 21.1918 -103.0508 295° West  Level Estimated
11:58PM 21.2335 -103.1490 294° West  Level Estimated
11:59PM 21.2751 -103.2473 294° West  Level Estimated
12:00AM 21.3166 -103.3456 294° West  Level Estimated
12:01AM 21.3581 -103.4439 294° West  Level Estimated
12:02AM 21.3996 -103.5423 294° West  Level Estimated
12:03AM 21.4410 -103.6408 294° West  Level Estimated
12:04AM 21.4823 -103.7393 294° West  Level Estimated
12:05AM 21.5236 -103.8379 294° West  Level Estimated
12:06AM 21.5648 -103.9365 294° West  Level Estimated
12:07AM 21.6059 -104.0352 294° West  Level Estimated
12:08AM 21.6470 -104.1339 294° West  Level Estimated
12:09AM 21.6881 -104.2327 294° West  Level Estimated
12:10AM 21.7290 -104.3316 294° West  Level Estimated
12:11AM 21.7700 -104.4305 294° West  Level Estimated
12:12AM 21.8108 -104.5294 294° West  Level Estimated
12:13AM 21.8516 -104.6285 294° West  Level Estimated
12:14AM 21.8924 -104.7275 294° West  Level Estimated
12:15AM 21.9330 -104.8267 294° West  Level Estimated
12:16AM 21.9737 -104.9259 294° West  Level Estimated
12:17AM 22.0142 -105.0251 294° West  Level Estimated
12:18AM 22.0547 -105.1244 294° West  Level Estimated
12:19AM 22.0952 -105.2238 294° West  Level Estimated
12:20AM 22.1355 -105.3232 294° West  Level Estimated
12:21AM 22.1759 -105.4227 294° West  Level Estimated
12:22AM 22.2161 -105.5222 294° West  Level Estimated
12:23AM 22.2563 -105.6218 294° West  Level Estimated
12:24AM 22.2965 -105.7215 294° West  Level Estimated
12:25AM 22.3365 -105.8212 294° West  Level Estimated
12:26AM 22.3766 -105.9209 293° West  Level Estimated
12:27AM 22.4165 -106.0207 293° West  Level Estimated
12:28AM 22.4564 -106.1206 293° West  Level Estimated
12:29AM 22.4963 -106.2206 293° West  Level Estimated
12:30AM 22.5360 -106.3205 293° West  Level Estimated
12:31AM 22.5758 -106.4206 293° West  Level Estimated
12:32AM 22.6154 -106.5207 293° West  Level Estimated
12:33AM 22.6550 -106.6209 293° West  Level Estimated
12:34AM 22.6945 -106.7211 293° West  Level Estimated
12:35AM 22.7340 -106.8214 293° West  Level Estimated
12:36AM 22.7734 -106.9217 293° West  Level Estimated
12:37AM 22.8127 -107.0221 293° West  Level Estimated
12:38AM 22.8520 -107.1226 293° West  Level Estimated
12:39AM 22.8912 -107.2231 293° West  Level Estimated
12:40AM 22.9304 -107.3236 293° West  Level Estimated
12:41AM 22.9694 -107.4243 293° West  Level Estimated
12:42AM 23.0085 -107.5249 293° West  Level Estimated
12:43AM 23.0474 -107.6257 293° West  Level Estimated
12:44AM 23.0863 -107.7265 293° West  Level Estimated
12:45AM 23.1252 -107.8273 293° West  Level Estimated
12:46AM 23.1639 -107.9283 293° West  Level Estimated
12:47AM 23.2026 -108.0293 293° West  Level Estimated
12:48AM 23.2413 -108.1303 293° West  Level Estimated
12:49AM 23.2798 -108.2314 293° West  Level Estimated
12:50AM 23.3183 -108.3325 293° West  Level Estimated
12:51AM 23.3568 -108.4337 292° West  Level Estimated
12:52AM 23.3952 -108.5350 292° West  Level Estimated
12:53AM 23.4335 -108.6364 292° West  Level Estimated
12:54AM 23.4717 -108.7377 292° West  Level Estimated
12:55AM 23.5099 -108.8392 292° West  Level Estimated
12:56AM 23.5480 -108.9407 292° West  Level Estimated
12:57AM 23.5861 -109.0423 292° West  Level Estimated
12:58AM 23.6241 -109.1439 292° West  Level Estimated
12:59AM 23.6620 -109.2456 292° West  Level Estimated
01:00AM 23.6998 -109.3473 292° West  Level Estimated
01:01AM 23.7376 -109.4491 292° West  Level Estimated
01:02AM 23.7754 -109.5510 292° West  Level Estimated
01:03AM 23.8130 -109.6529 292° West  Level Estimated
01:04AM 23.8506 -109.7549 292° West  Level Estimated
01:05AM 23.8881 -109.8569 292° West  Level Estimated
01:06AM 23.9256 -109.9590 292° West  Level Estimated
01:07AM 23.9629 -110.0611 292° West  Level Estimated
01:08AM 24.0003 -110.1634 292° West  Level Estimated
01:09AM 24.0375 -110.2656 292° West  Level Estimated
01:10AM 24.0727 -110.3625 292° West  Level Estimated
01:11AM 24.0727 -110.3625 49° Northeast  Level Estimated
01:12AM 24.0727 -110.3625 49° Northeast  Level Estimated
01:13AM 24.0727 -110.3625 49° Northeast  Level Estimated
01:14AM 24.0727 -110.3625 49° Northeast  Level Estimated
01:15AM 24.0727 -110.3625 49° Northeast  Level Estimated
01:16AM 24.0727 -110.3625 49° Northeast  Level Estimated
01:17AM 24.0727 -110.3625 49° Northeast  Level Estimated
01:18AM 24.0727 -110.3625 49° Northeast  Level Estimated
01:19AM 24.0727 -110.3625 49° Northeast  Level Estimated
01:20AM 24.0727 -110.3625 49° Northeast  Level Estimated
01:21AM 24.0727 -110.3625 49° Northeast  Level Estimated
01:22AM 24.0727 -110.3625 49° Northeast  Level Estimated
01:23AM 24.0727 -110.3625 49° Northeast  Level Estimated
01:24AM 24.0727 -110.3625 49° Northeast  Level Estimated
01:25AM 24.0727 -110.3625 49° Northeast  Level Estimated
01:26AM 24.0727 -110.3625 49° Northeast  Level Estimated